createdAt,value
2017-08-18T00:01:00.493Z,14.00
2017-08-18T00:03:31.038Z,13.53
2017-08-18T00:06:01.689Z,12.70
2017-08-18T00:08:32.305Z,12.00
2017-08-18T00:11:02.785Z,11.93
2017-08-18T00:13:33.282Z,14.03
2017-08-18T00:16:04.590Z,13.67
2017-08-18T00:18:34.968Z,13.00
2017-08-18T00:21:05.756Z,12.37
2017-08-18T00:23:36.587Z,12.50
2017-08-18T00:26:06.864Z,13.00
2017-08-18T00:28:38.364Z,10.53
2017-08-18T00:31:08.775Z,11.57
2017-08-18T00:33:39.216Z,10.93
2017-08-18T00:36:09.814Z,11.73
2017-08-18T00:38:40.255Z,10.77
2017-08-18T00:41:10.928Z,10.50
2017-08-18T00:43:41.527Z,9.77
2017-08-18T00:46:12.110Z,10.23
2017-08-18T00:48:42.700Z,9.87
2017-08-18T00:51:13.346Z,9.53
2017-08-18T00:53:43.972Z,9.23
2017-08-18T00:56:14.377Z,9.07
2017-08-18T00:58:44.843Z,7.67
2017-08-18T01:01:15.211Z,8.67
2017-08-18T01:03:45.762Z,9.10
2017-08-18T01:06:16.411Z,9.60
2017-08-18T01:08:46.790Z,9.20
2017-08-18T01:11:17.333Z,8.97
2017-08-18T01:13:47.963Z,8.80
2017-08-18T01:16:19.330Z,10.60
2017-08-18T01:18:49.860Z,9.20
2017-08-18T01:21:20.226Z,8.50
2017-08-18T01:23:51.405Z,8.67
2017-08-18T01:26:22.041Z,7.10
2017-08-18T01:28:52.715Z,7.17
2017-08-18T01:31:23.343Z,7.43
2017-08-18T01:33:53.888Z,7.90
2017-08-18T01:36:24.537Z,8.20
2017-08-18T01:38:55.164Z,7.70
2017-08-18T01:41:25.864Z,7.13
2017-08-18T01:43:57.131Z,5.93
2017-08-18T01:46:27.731Z,6.33
2017-08-18T01:48:58.059Z,6.50
2017-08-18T01:51:29.233Z,7.57
2017-08-18T01:53:59.756Z,8.10
2017-08-18T01:56:30.241Z,7.10
2017-08-18T01:59:01.648Z,5.60
2017-08-18T02:01:32.189Z,7.00
2017-08-18T02:04:02.526Z,6.10
2017-08-18T02:06:33.036Z,5.67
2017-08-18T02:09:03.509Z,6.70
2017-08-18T02:11:33.975Z,5.37
2017-08-18T02:14:05.182Z,5.50
2017-08-18T02:17:22.501Z,6.17
2017-08-18T02:19:53.074Z,6.70
2017-08-18T02:22:24.411Z,6.63
2017-08-18T02:24:58.755Z,7.60
2017-08-18T02:27:29.310Z,6.80
2017-08-18T02:29:59.803Z,6.27
2017-08-18T02:32:30.290Z,11.10
2017-08-18T02:35:00.661Z,10.50
2017-08-18T02:37:31.196Z,10.20
2017-08-18T02:40:01.754Z,8.40
2017-08-18T02:42:32.111Z,9.77
2017-08-18T02:45:02.567Z,8.50
2017-08-18T02:47:32.908Z,8.53
2017-08-18T02:50:04.276Z,7.40
2017-08-18T02:52:34.828Z,8.37
2017-08-18T02:55:05.259Z,6.73
2017-08-18T02:57:35.737Z,7.30
2017-08-18T03:00:06.027Z,8.10
2017-08-18T03:02:36.581Z,9.40
2017-08-18T03:05:07.910Z,9.10
2017-08-18T03:07:38.325Z,11.50
2017-08-18T03:10:08.942Z,12.70
2017-08-18T03:12:39.551Z,12.83
2017-08-18T03:15:10.011Z,12.40
2017-08-18T03:17:40.590Z,12.80
2017-08-18T03:20:11.294Z,53.57
2017-08-18T03:22:41.931Z,91.33
2017-08-18T03:25:13.039Z,14.80
2017-08-18T03:27:43.537Z,25.73
2017-08-18T03:30:14.036Z,50.60
2017-08-18T03:32:44.307Z,14.80
2017-08-18T03:35:15.559Z,14.67
2017-08-18T03:37:45.936Z,11.13
2017-08-18T03:40:16.493Z,9.30
2017-08-18T03:42:46.781Z,9.60
2017-08-18T03:45:17.219Z,10.30
2017-08-18T03:47:47.852Z,9.77
2017-08-18T03:50:18.408Z,10.60
2017-08-18T03:52:48.611Z,8.93
2017-08-18T03:55:19.347Z,11.37
2017-08-18T03:57:49.566Z,9.00
2017-08-18T04:00:20.155Z,9.40
2017-08-18T04:02:50.383Z,6.33
2017-08-18T04:05:20.745Z,7.87
2017-08-18T04:07:51.011Z,11.43
2017-08-18T04:10:21.465Z,14.10
2017-08-18T04:12:52.715Z,12.20
2017-08-18T04:15:23.366Z,12.57
2017-08-18T04:17:53.971Z,8.07
2017-08-18T04:20:25.266Z,9.03
2017-08-18T04:22:55.811Z,11.10
2017-08-18T04:25:26.611Z,11.10
2017-08-18T04:27:57.060Z,10.13
2017-08-18T04:30:27.424Z,11.47
2017-08-18T04:32:58.094Z,10.70
2017-08-18T04:35:28.735Z,11.10
2017-08-18T04:37:59.295Z,7.60
2017-08-18T04:40:29.607Z,7.90
2017-08-18T04:43:00.335Z,6.80
2017-08-18T04:45:30.794Z,8.10
2017-08-18T04:48:01.379Z,7.50
2017-08-18T04:50:31.889Z,6.03
2017-08-18T04:53:03.254Z,5.97
2017-08-18T04:55:33.786Z,6.23
2017-08-18T04:58:04.439Z,4.63
2017-08-18T05:00:35.062Z,5.33
2017-08-18T05:03:05.473Z,3.73
2017-08-18T05:05:36.850Z,4.93
2017-08-18T05:08:07.369Z,3.00
2017-08-18T05:10:38.084Z,5.10
2017-08-18T05:13:09.300Z,4.23
2017-08-18T05:15:39.698Z,3.90
2017-08-18T05:18:10.065Z,4.60
2017-08-18T05:20:40.584Z,4.40
2017-08-18T05:23:11.098Z,3.80
2017-08-18T05:25:42.310Z,4.00
2017-08-18T05:28:12.646Z,4.70
2017-08-18T05:30:44.596Z,4.67
2017-08-18T05:33:16.095Z,4.40
2017-08-18T05:35:46.474Z,4.17
2017-08-18T05:38:17.198Z,4.30
2017-08-18T05:40:48.426Z,4.60
2017-08-18T05:43:18.763Z,4.37
2017-08-18T05:45:49.146Z,4.47
2017-08-18T05:48:19.686Z,4.37
2017-08-18T05:50:50.162Z,4.13
2017-08-18T05:53:21.447Z,4.20
2017-08-18T05:55:51.847Z,3.90
2017-08-18T05:58:22.467Z,4.37
2017-08-18T06:00:53.790Z,3.70
2017-08-18T06:03:24.232Z,3.90
2017-08-18T06:05:54.835Z,4.20
2017-08-18T06:08:25.395Z,4.83
2017-08-18T06:10:55.682Z,5.00
2017-08-18T06:13:26.311Z,4.17
2017-08-18T06:15:56.852Z,4.30
2017-08-18T06:18:27.233Z,3.77
2017-08-18T06:20:58.479Z,3.77
2017-08-18T06:23:29.106Z,4.07
2017-08-18T06:26:00.847Z,3.20
2017-08-18T06:28:31.336Z,3.00
2017-08-18T06:31:01.906Z,3.53
2017-08-18T06:33:32.323Z,4.00
2017-08-18T06:36:02.927Z,3.63
2017-08-18T06:38:33.475Z,3.70
2017-08-18T06:41:04.094Z,4.93
2017-08-18T06:43:34.494Z,3.67
2017-08-18T06:46:05.715Z,4.20
2017-08-18T06:48:36.161Z,4.13
2017-08-18T06:51:07.432Z,3.27
2017-08-18T06:53:37.790Z,4.00
2017-08-18T06:56:08.358Z,3.17
2017-08-18T06:58:38.912Z,3.83
2017-08-18T07:01:09.473Z,3.40
2017-08-18T07:03:40.068Z,3.30
2017-08-18T07:06:10.625Z,3.30
2017-08-18T07:08:41.223Z,4.00
2017-08-18T07:11:12.502Z,3.77
2017-08-18T07:13:43.267Z,3.20
2017-08-18T07:16:13.744Z,3.10
2017-08-18T07:18:44.908Z,3.60
2017-08-18T07:21:15.277Z,4.07
2017-08-18T07:23:45.721Z,4.00
2017-08-18T07:26:16.314Z,3.47
2017-08-18T07:28:46.852Z,3.03
2017-08-18T07:31:17.177Z,3.37
2017-08-18T07:33:47.575Z,3.60
2017-08-18T07:36:18.206Z,3.10
2017-08-18T07:38:49.474Z,4.00
2017-08-18T07:41:19.989Z,3.33
2017-08-18T07:43:50.597Z,4.93
2017-08-18T07:46:21.049Z,3.40
2017-08-18T07:48:51.886Z,3.00
2017-08-18T07:51:23.304Z,3.50
2017-08-18T07:53:53.704Z,3.20
2017-08-18T07:56:24.799Z,3.20
2017-08-18T07:58:56.138Z,3.50
2017-08-18T08:01:26.572Z,3.20
2017-08-18T08:03:57.654Z,3.53
2017-08-18T08:06:28.176Z,2.97
2017-08-18T08:08:58.672Z,2.80
2017-08-18T08:11:29.943Z,3.03
2017-08-18T08:14:00.315Z,3.20
2017-08-18T08:16:30.754Z,3.47
2017-08-18T08:19:01.156Z,3.43
2017-08-18T08:21:31.551Z,3.47
2017-08-18T08:24:02.990Z,3.60
2017-08-18T08:26:34.509Z,3.10
2017-08-18T08:29:04.785Z,2.80
2017-08-18T08:31:35.389Z,3.00
2017-08-18T08:34:05.798Z,3.40
2017-08-18T08:36:36.357Z,3.40
2017-08-18T08:39:07.075Z,3.33
2017-08-18T08:41:37.563Z,2.87
2017-08-18T08:44:08.032Z,3.40
2017-08-18T08:46:38.467Z,3.20
2017-08-18T08:49:08.908Z,3.30
2017-08-18T08:51:39.447Z,3.20
2017-08-18T08:54:10.627Z,3.80
2017-08-18T08:56:40.947Z,3.80
2017-08-18T08:59:11.427Z,3.30
2017-08-18T09:01:41.824Z,3.20
2017-08-18T09:04:12.469Z,3.90
2017-08-18T09:06:42.794Z,3.57
2017-08-18T09:09:13.390Z,3.90
2017-08-18T09:11:43.922Z,3.53
2017-08-18T09:14:14.422Z,3.60
2017-08-18T09:16:44.854Z,3.90
2017-08-18T09:19:15.366Z,3.20
2017-08-18T09:21:45.952Z,3.77
2017-08-18T09:24:16.583Z,3.80
2017-08-18T09:26:47.166Z,3.20
2017-08-18T09:29:17.615Z,4.57
2017-08-18T09:31:48.800Z,4.47
2017-08-18T09:34:19.251Z,3.93
2017-08-18T09:36:49.723Z,4.33
2017-08-18T09:39:20.947Z,4.37
2017-08-18T09:41:51.212Z,4.47
2017-08-18T09:44:21.758Z,4.40
2017-08-18T09:46:52.343Z,4.17
2017-08-18T09:52:48.532Z,4.33
2017-08-18T09:55:29.790Z,3.50
2017-08-18T09:58:11.829Z,4.50
2017-08-18T10:00:42.465Z,4.30
2017-08-18T10:03:12.930Z,3.47
2017-08-18T10:05:43.276Z,4.10
2017-08-18T10:08:13.587Z,4.20
2017-08-18T10:10:44.010Z,4.70
2017-08-18T10:13:14.260Z,4.40
2017-08-18T10:15:44.742Z,6.60
2017-08-18T10:18:14.951Z,5.20
2017-08-18T10:20:47.029Z,5.73
2017-08-18T10:23:17.452Z,4.70
2017-08-18T10:25:50.134Z,3.90
2017-08-18T10:28:20.529Z,4.93
2017-08-18T10:30:51.897Z,4.80
2017-08-18T10:33:22.340Z,5.03
2017-08-18T10:35:52.793Z,5.73
2017-08-18T10:38:24.103Z,6.80
2017-08-18T10:40:54.755Z,5.60
2017-08-18T10:43:25.394Z,6.00
2017-08-18T10:45:55.718Z,5.80
2017-08-18T10:48:26.461Z,7.63
2017-08-18T10:50:56.878Z,6.97
2017-08-18T10:53:27.404Z,6.40
2017-08-18T10:55:57.901Z,6.43
2017-08-18T10:58:29.082Z,6.00
2017-08-18T11:00:59.592Z,5.10
2017-08-18T11:03:30.051Z,7.30
2017-08-18T11:06:00.534Z,9.90
2017-08-18T11:08:31.082Z,8.93
2017-08-18T11:11:02.152Z,12.90
2017-08-18T11:13:32.758Z,13.97
2017-08-18T11:16:03.031Z,7.10
2017-08-18T11:18:33.482Z,15.13
2017-08-18T11:21:04.053Z,17.37
2017-08-18T11:23:34.616Z,20.33
2017-08-18T11:26:05.124Z,22.00
2017-08-18T11:28:36.056Z,19.30
2017-08-18T11:31:06.497Z,14.50
2017-08-18T11:33:37.037Z,10.30
2017-08-18T11:36:07.702Z,9.23
2017-08-18T11:38:39.210Z,10.87
2017-08-18T11:41:09.751Z,8.67
2017-08-18T11:43:40.342Z,7.60
2017-08-18T11:46:11.005Z,6.70
2017-08-18T11:48:41.596Z,7.03
2017-08-18T11:51:12.171Z,6.13
2017-08-18T11:53:42.702Z,6.93
2017-08-18T11:56:12.971Z,7.20
2017-08-18T11:58:43.420Z,6.70
2017-08-18T12:01:14.786Z,6.70
2017-08-18T12:03:46.170Z,6.67
2017-08-18T12:06:16.642Z,6.33
2017-08-18T12:08:47.575Z,6.27
2017-08-18T12:11:18.000Z,6.20
2017-08-18T12:13:48.531Z,5.97
2017-08-18T12:16:18.932Z,5.73
2017-08-18T12:18:49.536Z,5.30
2017-08-18T12:21:20.176Z,6.77
2017-08-18T12:23:50.817Z,7.20
2017-08-18T12:26:21.595Z,7.50
2017-08-18T12:28:52.679Z,10.17
2017-08-18T12:31:23.159Z,10.20
2017-08-18T12:33:53.684Z,10.57
2017-08-18T12:36:24.291Z,8.80
2017-08-18T12:38:54.712Z,9.67
2017-08-18T12:41:25.164Z,8.00
2017-08-18T12:43:55.576Z,9.40
2017-08-18T12:46:26.167Z,9.70
2017-08-18T12:48:56.541Z,9.40
2017-08-18T12:51:27.056Z,9.40
2017-08-18T12:53:57.666Z,9.03
2017-08-18T12:56:28.792Z,8.70
2017-08-18T12:58:59.215Z,7.67
2017-08-18T13:01:29.712Z,12.80
2017-08-18T13:04:00.329Z,21.70
2017-08-18T13:06:30.761Z,20.03
2017-08-18T13:09:01.280Z,17.70
2017-08-18T13:11:31.788Z,13.57
2017-08-18T13:14:03.220Z,11.70
2017-08-18T13:16:33.690Z,9.90
2017-08-18T13:19:03.969Z,10.83
2017-08-18T13:21:34.315Z,9.77
2017-08-18T13:24:04.848Z,9.87
2017-08-18T13:26:35.260Z,8.30
2017-08-18T13:29:06.296Z,7.50
2017-08-18T13:31:36.907Z,5.97
2017-08-18T13:34:08.523Z,6.67
2017-08-18T13:36:38.959Z,6.30
2017-08-18T13:39:10.340Z,7.10
2017-08-18T13:41:41.390Z,6.67
2017-08-18T13:44:12.175Z,7.20
2017-08-18T13:46:43.185Z,6.70
2017-08-18T13:49:13.663Z,6.50
2017-08-18T13:51:44.192Z,7.17
2017-08-18T13:54:15.511Z,6.47
2017-08-18T13:56:45.998Z,7.70
2017-08-18T13:59:16.495Z,7.63
2017-08-18T14:01:47.220Z,7.97
2017-08-18T14:04:17.826Z,7.73
2017-08-18T14:06:49.540Z,7.90
2017-08-18T14:09:20.276Z,7.30
2017-08-18T14:11:51.227Z,7.93
2017-08-18T14:14:23.007Z,7.23
2017-08-18T14:16:53.519Z,6.70
2017-08-18T14:19:24.162Z,6.90
2017-08-18T14:21:54.972Z,6.27
2017-08-18T14:24:25.611Z,5.50
2017-08-18T14:27:04.950Z,6.27
2017-08-18T14:29:36.813Z,6.97
2017-08-18T14:32:07.379Z,6.67
2017-08-18T14:34:37.765Z,7.03
2017-08-18T14:37:08.334Z,6.43
2017-08-18T14:39:38.776Z,6.00
2017-08-18T14:42:09.416Z,6.63
2017-08-18T14:44:41.099Z,6.77
2017-08-18T14:47:11.536Z,6.87
2017-08-18T14:49:42.122Z,6.80
2017-08-18T14:52:12.825Z,7.57
2017-08-18T14:54:43.133Z,6.90
2017-08-18T14:57:14.291Z,6.50
2017-08-18T14:59:45.051Z,6.17
2017-08-18T15:02:15.676Z,5.63
2017-08-18T15:04:47.156Z,6.60
2017-08-18T15:07:18.359Z,5.70
2017-08-18T15:09:49.005Z,6.43
2017-08-18T15:12:19.420Z,6.17
2017-08-18T15:14:50.159Z,6.43
2017-08-18T15:17:20.601Z,6.70
2017-08-18T15:19:51.002Z,6.73
2017-08-18T15:22:22.600Z,6.93
2017-08-18T15:24:53.192Z,5.93
2017-08-18T15:27:24.496Z,5.20
2017-08-18T15:29:55.461Z,4.37
2017-08-18T15:32:26.096Z,5.00
2017-08-18T15:34:56.548Z,5.40
2017-08-18T15:37:27.218Z,4.03
2017-08-18T15:39:57.866Z,4.90
2017-08-18T15:42:28.586Z,4.50
2017-08-18T15:44:59.332Z,4.40
2017-08-18T15:47:30.056Z,5.53
2017-08-18T15:50:00.796Z,5.30
2017-08-18T15:52:32.079Z,6.53
2017-08-18T15:55:03.860Z,8.30
2017-08-18T15:57:35.247Z,7.87
2017-08-18T16:00:09.471Z,8.50
2017-08-18T16:02:40.805Z,9.20
2017-08-18T16:05:11.217Z,8.20
2017-08-18T16:07:41.700Z,8.80
2017-08-18T16:10:12.096Z,8.70
2017-08-18T16:12:42.495Z,6.40
2017-08-18T16:15:13.605Z,7.20
2017-08-18T16:17:44.498Z,4.37
2017-08-18T16:20:15.071Z,4.57
2017-08-18T16:22:45.238Z,4.13
2017-08-18T16:25:15.787Z,4.63
2017-08-18T16:27:45.977Z,4.03
2017-08-18T16:30:17.707Z,4.20
2017-08-18T16:32:48.047Z,4.97
2017-08-18T16:35:18.610Z,4.73
2017-08-18T16:37:49.126Z,5.00
2017-08-18T16:40:19.737Z,4.87
2017-08-18T16:42:50.003Z,4.50
2017-08-18T16:45:20.528Z,4.70
2017-08-18T16:47:50.732Z,4.80
2017-08-18T16:50:21.408Z,5.50
2017-08-18T16:52:51.758Z,5.77
2017-08-18T16:55:22.260Z,4.60
2017-08-18T16:57:53.597Z,4.37
2017-08-18T17:00:24.124Z,4.80
2017-08-18T17:02:54.675Z,4.60
2017-08-18T17:05:25.207Z,4.87
2017-08-18T17:07:55.887Z,4.77
2017-08-18T17:10:26.224Z,4.17
2017-08-18T17:12:56.813Z,4.30
2017-08-18T17:15:27.431Z,4.00
2017-08-18T17:17:57.991Z,4.60
2017-08-18T17:20:28.186Z,4.60
2017-08-18T17:22:58.673Z,4.40
2017-08-18T17:25:29.213Z,4.00
2017-08-18T17:28:00.348Z,4.20
2017-08-18T17:30:31.257Z,3.53
2017-08-18T17:33:01.668Z,3.87
2017-08-18T17:35:32.147Z,4.70
2017-08-18T17:38:02.543Z,3.83
2017-08-18T17:40:33.061Z,4.03
2017-08-18T17:43:03.987Z,3.80
2017-08-18T17:45:34.518Z,4.43
2017-08-18T17:48:05.146Z,3.90
2017-08-18T17:50:35.787Z,3.97
2017-08-18T17:53:06.194Z,4.50
2017-08-18T17:55:36.648Z,4.63
2017-08-18T17:58:07.019Z,4.17
2017-08-18T18:00:37.486Z,4.67
2017-08-18T18:03:08.094Z,4.43
2017-08-18T18:05:38.619Z,4.70
2017-08-18T18:08:09.182Z,4.63
2017-08-18T18:10:39.514Z,5.77
2017-08-18T18:13:09.781Z,5.53
2017-08-18T18:15:40.273Z,6.23
2017-08-18T18:18:10.860Z,6.00
2017-08-18T18:20:41.408Z,6.03
2017-08-18T18:23:12.504Z,6.20
2017-08-18T18:25:43.023Z,6.13
2017-08-18T18:28:13.482Z,5.57
2017-08-18T18:30:44.290Z,5.57
2017-08-18T18:33:14.851Z,6.90
2017-08-18T18:35:45.416Z,6.23
2017-08-18T18:38:16.031Z,6.20
2017-08-18T18:40:46.311Z,6.03
2017-08-18T18:43:17.028Z,6.30
2017-08-18T18:45:47.467Z,7.67
2017-08-18T18:48:17.844Z,6.90
2017-08-18T18:50:48.215Z,6.93
2017-08-18T18:53:18.811Z,7.47
2017-08-18T18:55:49.462Z,7.33
2017-08-18T18:58:20.692Z,7.27
2017-08-18T19:00:51.095Z,7.27
2017-08-18T19:03:21.574Z,8.07
2017-08-18T19:05:52.005Z,8.63
2017-08-18T19:08:22.385Z,7.60
2017-08-18T19:10:52.958Z,8.27
2017-08-18T19:13:23.394Z,8.50
2017-08-18T19:15:54.033Z,9.53
2017-08-18T19:18:24.669Z,9.23
2017-08-18T19:20:55.300Z,9.13
2017-08-18T19:23:25.973Z,10.03
2017-08-18T19:25:56.350Z,10.53
2017-08-18T19:28:27.096Z,9.87
2017-08-18T19:30:58.188Z,9.73
2017-08-18T19:33:28.692Z,9.47
2017-08-18T19:35:59.200Z,9.80
2017-08-18T19:38:29.727Z,9.60
2017-08-18T19:41:00.373Z,10.97
2017-08-18T19:43:30.696Z,9.33
2017-08-18T19:46:01.200Z,10.20
2017-08-18T19:48:32.577Z,11.03
2017-08-18T19:51:03.204Z,9.77
2017-08-18T19:53:33.586Z,9.70
2017-08-18T19:56:04.030Z,9.93
2017-08-18T19:58:35.302Z,11.10
2017-08-18T20:01:05.889Z,11.10
2017-08-18T20:03:36.457Z,9.97
2017-08-18T20:06:07.707Z,9.80
2017-08-18T20:08:39.085Z,10.40
2017-08-18T20:11:09.609Z,10.27
2017-08-18T20:13:40.090Z,11.10
2017-08-18T20:16:10.369Z,10.13
2017-08-18T20:18:40.787Z,9.77
2017-08-18T20:21:11.288Z,10.40
2017-08-18T20:23:41.862Z,11.17
2017-08-18T20:26:13.099Z,9.73
2017-08-18T20:28:43.548Z,9.43
2017-08-18T20:31:14.575Z,9.33
2017-08-18T20:33:45.160Z,9.07
2017-08-18T20:36:15.591Z,10.20
2017-08-18T20:38:46.098Z,8.50
2017-08-18T20:41:16.704Z,8.20
2017-08-18T20:43:47.778Z,9.37
2017-08-18T20:46:18.921Z,8.40
2017-08-18T20:48:49.969Z,8.80
2017-08-18T20:51:24.218Z,10.37
2017-08-18T20:53:56.591Z,10.67
2017-08-18T20:56:28.350Z,11.57
2017-08-18T20:59:00.275Z,13.60
2017-08-18T21:01:32.896Z,14.00
2017-08-18T21:04:04.337Z,14.50
2017-08-18T21:06:37.461Z,14.93
2017-08-18T21:09:10.438Z,15.57
2017-08-18T21:11:41.347Z,15.43
2017-08-18T21:14:15.059Z,15.70
2017-08-18T21:16:46.890Z,15.97
2017-08-18T21:19:17.826Z,14.20
2017-08-18T21:21:48.900Z,13.80
2017-08-18T21:24:19.325Z,13.70
2017-08-18T21:26:49.904Z,14.97
2017-08-18T21:29:20.322Z,13.60
2017-08-18T21:31:51.418Z,13.87
2017-08-18T21:34:21.773Z,16.07
2017-08-18T21:36:52.170Z,14.60
2017-08-18T21:39:22.695Z,14.40
2017-08-18T21:41:53.227Z,15.23
2017-08-18T21:44:23.830Z,15.10
2017-08-18T21:46:54.298Z,17.00
2017-08-18T21:49:24.677Z,14.70
2017-08-18T21:51:55.222Z,14.47
2017-08-18T21:54:25.720Z,15.60
2017-08-18T21:56:56.998Z,13.40
2017-08-18T21:59:27.338Z,11.33
2017-08-18T22:01:57.935Z,12.43
2017-08-18T22:04:28.466Z,11.97
2017-08-18T22:06:59.640Z,12.13
2017-08-18T22:09:30.150Z,12.93
2017-08-18T22:12:00.696Z,14.17
2017-08-18T22:14:31.213Z,13.47
2017-08-18T22:17:01.664Z,13.83
2017-08-18T22:19:32.254Z,14.70
2017-08-18T22:22:02.762Z,12.47
2017-08-18T22:24:33.260Z,11.90
2017-08-18T22:27:03.839Z,10.80
2017-08-18T22:29:34.543Z,11.03
2017-08-18T22:32:05.532Z,10.93
2017-08-18T22:34:36.703Z,10.53
2017-08-18T22:37:07.196Z,10.37
2017-08-18T22:42:16.285Z,13.83
2017-08-18T22:44:46.674Z,12.50
2017-08-18T22:47:17.352Z,11.83
2017-08-18T22:49:47.697Z,10.80
2017-08-18T22:52:18.138Z,12.80
2017-08-18T22:54:49.193Z,15.10
2017-08-18T22:57:19.544Z,12.97
2017-08-18T22:59:50.715Z,13.47
2017-08-18T23:02:21.624Z,13.37
2017-08-18T23:04:52.048Z,14.00
2017-08-18T23:07:22.637Z,12.83
2017-08-18T23:09:53.158Z,15.30
2017-08-18T23:12:23.684Z,14.43
2017-08-18T23:14:54.191Z,13.87
2017-08-18T23:17:24.738Z,14.00
2017-08-18T23:19:55.209Z,13.50
2017-08-18T23:22:25.592Z,13.10
2017-08-18T23:24:56.030Z,13.57
2017-08-18T23:27:26.544Z,14.73
2017-08-18T23:29:57.066Z,17.53
2017-08-18T23:32:28.104Z,17.50
2017-08-18T23:34:59.183Z,19.33
2017-08-18T23:37:29.703Z,19.20
2017-08-18T23:40:00.252Z,17.67
2017-08-18T23:42:30.607Z,20.07
2017-08-18T23:45:01.155Z,18.63
2017-08-18T23:47:31.602Z,18.60
2017-08-18T23:50:01.889Z,17.20
2017-08-18T23:52:32.491Z,17.83
2017-08-18T23:55:02.944Z,17.10
2017-08-18T23:57:33.452Z,18.60
